Time;durP1;ratioP1;P1;durP2;ratioP2;P2;SDS_P1;SDS_P2;PMS_P1;PMS_P2;Temp;Humidity;BMP_temperature;BMP_pressure;BME280_temperature;BME280_humidity;BME280_pressure;Samples;Min_cycle;Max_cycle;Signal;HPM_P1;HPM_P2
2022/02/24 00:40:33;;;;;;;14.02;5.32;;;;;;;2.92;100.00;95176.44;6203599;22;20021;-80
2022/02/24 00:43:00;;;;;;;11.63;5.90;;;;;;;2.87;100.00;95170.06;6212824;23;20005;-84
2022/02/24 00:48:01;;;;;;;11.60;5.40;;;;;;;2.96;100.00;95167.59;6200831;22;20055;-80
2022/02/24 00:50:26;;;;;;;12.80;6.07;;;;;;;2.98;100.00;95170.06;6178468;23;20451;-79
2022/02/24 00:52:56;;;;;;;9.52;6.07;;;;;;;2.84;100.00;95153.22;6151860;23;20084;-81
2022/02/24 00:55:22;;;;;;;12.63;6.13;;;;;;;2.78;100.00;95152.88;6153357;23;20016;-80
2022/02/24 00:57:48;;;;;;;12.10;6.00;;;;;;;2.77;100.00;95152.06;6202786;23;20005;-79
2022/02/24 01:00:14;;;;;;;14.98;6.38;;;;;;;2.84;100.00;95157.50;6147663;23;20008;-79
2022/02/24 01:02:39;;;;;;;19.77;5.20;;;;;;;2.94;100.00;95155.88;6181365;23;20013;-80
2022/02/24 01:07:40;;;;;;;9.20;6.10;;;;;;;3.15;100.00;95187.44;6202392;22;20005;-82
2022/02/24 01:10:07;;;;;;;13.80;5.57;;;;;;;2.78;100.00;95142.66;6188526;23;20001;-81
2022/02/24 01:12:33;;;;;;;15.50;5.93;;;;;;;2.76;100.00;95134.31;6164551;23;20021;-82
2022/02/24 01:30:29;;;;;;;11.48;5.93;;;;;;;2.45;100.00;95157.09;6211704;22;20009;-80
2022/02/24 01:35:30;;;;;;;10.15;5.68;;;;;;;2.42;100.00;95190.53;6194693;22;20008;-80
2022/02/24 01:37:56;;;;;;;14.73;5.00;;;;;;;2.07;100.00;95137.00;6177346;23;20040;-79
2022/02/24 01:40:21;;;;;;;16.98;6.13;;;;;;;2.09;100.00;95150.44;6174595;23;20012;-79
2022/02/24 01:42:47;;;;;;;11.07;5.40;;;;;;;2.09;100.00;95136.88;6179644;23;19985;-81
2022/02/24 01:45:13;;;;;;;17.17;6.10;;;;;;;2.01;100.00;95146.84;6175962;23;20011;-79
2022/02/24 01:47:41;;;;;;;11.82;5.47;;;;;;;1.91;100.00;95128.03;6214204;23;20005;-80
2022/02/24 01:52:44;;;;;;;12.23;5.30;;;;;;;1.82;100.00;95136.38;6211661;22;20028;-81
2022/02/24 01:55:10;;;;;;;10.95;5.18;;;;;;;1.89;100.00;95129.91;6150197;22;20017;-81
2022/02/24 01:57:35;;;;;;;14.30;5.70;;;;;;;1.99;100.00;95148.72;6164619;23;20121;-81
2022/02/24 02:00:02;;;;;;;17.33;6.07;;;;;;;2.11;100.00;95160.56;6159676;23;20012;-81
2022/02/24 02:02:27;;;;;;;14.20;6.03;;;;;;;1.91;100.00;95128.03;6188660;23;20004;-81
2022/02/24 02:04:53;;;;;;;12.07;5.22;;;;;;;2.10;100.00;95131.66;6131489;23;20100;-81
2022/02/24 02:07:22;;;;;;;9.68;5.28;;;;;;;2.16;100.00;95145.69;6132934;23;20005;-81
2022/02/24 02:09:47;;;;;;;11.32;4.82;;;;;;;2.52;100.00;95183.00;6120333;23;20009;-81
2022/02/24 02:12:13;;;;;;;11.52;5.13;;;;;;;2.19;100.00;95127.59;6145205;23;20001;-81
2022/02/24 02:14:39;;;;;;;8.70;4.72;;;;;;;2.40;100.00;95159.19;6142796;23;20098;-81
2022/02/24 02:17:04;;;;;;;12.50;5.28;;;;;;;2.01;100.00;95121.31;6141137;23;20439;-81
2022/02/24 02:19:30;;;;;;;9.48;4.45;;;;;;;2.13;100.00;95128.88;6111614;23;20036;-81
2022/02/24 02:21:56;;;;;;;11.00;5.00;;;;;;;2.18;100.00;95143.88;6141905;23;20057;-80
2022/02/24 02:24:21;;;;;;;11.25;4.45;;;;;;;2.04;100.00;95133.84;6138111;23;20065;-80
2022/02/24 02:26:49;;;;;;;10.90;5.03;;;;;;;2.40;100.00;95183.94;6166350;23;20008;-81
2022/02/24 02:29:16;;;;;;;7.70;4.00;;;;;;;2.12;100.00;95154.50;6169864;23;20029;-81
2022/02/24 02:31:41;;;;;;;12.32;5.50;;;;;;;2.18;100.00;95182.19;6166647;23;20424;-81
2022/02/24 02:34:09;;;;;;;9.13;4.90;;;;;;;2.21;100.00;95187.06;6162818;23;19985;-82
2022/02/24 02:36:36;;;;;;;10.35;4.25;;;;;;;2.24;100.00;95183.44;6166931;23;20009;-80
2022/02/24 02:39:04;;;;;;;10.15;4.68;;;;;;;1.93;100.00;95154.25;6164840;23;20468;-79
2022/02/24 02:41:31;;;;;;;11.45;4.63;;;;;;;1.94;100.00;95146.50;6172153;23;20005;-82
2022/02/24 02:43:57;;;;;;;12.40;5.63;;;;;;;1.98;100.00;95158.13;6161435;23;20001;-80
2022/02/24 02:46:23;;;;;;;6.15;4.57;;;;;;;2.16;100.00;95175.53;6171911;23;20029;-82
2022/02/24 02:48:48;;;;;;;12.00;4.55;;;;;;;1.99;100.00;95158.94;6176275;23;20012;-81
2022/02/24 02:51:14;;;;;;;9.65;4.00;;;;;;;2.02;100.00;95144.16;6175056;23;20013;-81
2022/02/24 03:49:49;;;;;;;3.08;2.30;;;;;;;1.25;100.00;95287.63;6199171;22;20005;-79
2022/02/24 05:46:41;;;;;;;5.93;3.28;;;;;;;2.73;100.00;95377.41;6231514;23;20071;-85
2022/02/24 05:49:07;;;;;;;9.18;3.40;;;;;;;2.35;100.00;95319.69;6217844;23;20000;-84
2022/02/24 05:51:36;;;;;;;4.95;3.20;;;;;;;2.40;100.00;95330.38;6193073;23;19995;-83
2022/02/24 05:54:01;;;;;;;9.38;3.60;;;;;;;2.39;100.00;95330.50;6193178;23;20027;-79
2022/02/24 06:40:24;;;;;;;6.75;3.38;;;;;;;3.41;94.57;95347.44;6199751;22;20089;-79
2022/02/24 06:42:50;;;;;;;5.45;3.78;;;;;;;3.26;95.68;95355.47;6208939;23;20005;-82
2022/02/24 08:00:16;;;;;;;6.80;3.00;;;;;;;4.56;94.79;95404.91;6210982;22;20005;-83
2022/02/24 08:02:44;;;;;;;4.90;3.10;;;;;;;5.49;91.48;95434.00;6161561;23;19997;-83
2022/02/24 08:05:11;;;;;;;7.53;3.40;;;;;;;7.13;85.98;95446.25;6185848;23;19985;-83
2022/02/24 08:07:37;;;;;;;3.35;2.50;;;;;;;6.17;84.38;95435.91;6162061;23;20000;-84
2022/02/24 08:10:04;;;;;;;3.00;2.45;;;;;;;5.78;90.44;95427.25;6161830;23;20001;-84
2022/02/24 08:12:44;;;;;;;3.03;2.47;;;;;;;5.26;91.14;95442.81;6187020;23;19989;-84
2022/02/24 08:15:15;;;;;;;3.53;2.72;;;;;;;4.81;93.74;95415.78;6190322;23;20005;-83
2022/02/24 08:17:41;;;;;;;3.22;2.95;;;;;;;4.96;95.87;95438.44;6149295;23;20005;-75
2022/02/24 08:25:19;;;;;;;2.17;1.88;;;;;;;6.33;88.94;95443.13;6192793;22;20226;-81
2022/02/24 08:40:42;;;;;;;1.95;0.90;;;;;;;6.01;93.71;95478.47;6182598;22;20028;-75
2022/02/24 08:43:07;;;;;;;1.35;1.00;;;;;;;5.93;91.15;95473.19;6100023;23;20044;-75
2022/02/24 08:55:53;;;;;;;2.97;1.52;;;;;;;5.10;92.73;95481.78;6202603;22;20025;-84
2022/02/24 08:58:19;;;;;;;1.20;1.10;;;;;;;4.82;92.40;95425.09;6187754;22;20012;-84
2022/02/24 09:03:18;;;;;;;1.25;1.15;;;;;;;5.00;93.61;95439.81;6243893;22;20076;-83
2022/02/24 09:08:19;;;;;;;8.73;2.63;;;;;;;5.36;91.76;95469.38;6205569;22;20051;-82
2022/02/24 09:10:45;;;;;;;1.95;1.70;;;;;;;5.43;91.45;95434.53;6211492;22;20005;-83
2022/02/24 09:46:49;;;;;;;2.00;1.30;;;;;;;6.33;79.28;95402.78;6205936;22;20031;-85
2022/02/24 09:51:49;;;;;;;2.53;1.40;;;;;;;6.66;79.56;95398.19;6198850;22;20005;-80
2022/02/24 09:54:15;;;;;;;1.38;0.93;;;;;;;7.66;75.23;95418.22;6205603;23;20009;-80
2022/02/24 09:56:42;;;;;;;2.33;1.58;;;;;;;7.49;70.34;95407.81;6207609;23;20049;-82
2022/02/24 10:12:10;;;;;;;0.93;0.85;;;;;;;9.00;66.61;95391.56;6209371;22;20005;-80
2022/02/24 10:14:37;;;;;;;0.77;0.68;;;;;;;7.51;66.55;95405.91;6177588;23;20020;-81
2022/02/24 10:17:05;;;;;;;1.13;1.00;;;;;;;8.44;67.92;95411.72;6204776;22;20067;-82
2022/02/24 10:30:13;;;;;;;2.42;1.00;;;;;;;9.10;64.68;95398.41;6193883;22;20009;-84
2022/02/24 10:40:26;;;;;;;2.33;1.00;;;;;;;8.58;63.92;95349.25;6233483;22;20074;-80
2022/02/24 10:50:51;;;;;;;1.50;0.75;;;;;;;7.96;62.04;95332.81;6217686;23;20009;-80
2022/02/24 11:01:03;;;;;;;0.95;0.95;;;;;;;7.29;64.41;95373.56;6213378;23;20060;-80
2022/02/24 11:03:29;;;;;;;1.23;0.82;;;;;;;7.06;66.44;95341.38;6183518;23;20004;-80
2022/02/24 11:05:59;;;;;;;1.20;1.10;;;;;;;6.89;66.08;95328.28;6240728;23;19989;-80
2022/02/24 11:08:27;;;;;;;1.35;0.90;;;;;;;7.05;70.37;95337.19;6211905;23;20043;-80
2022/02/24 11:10:54;;;;;;;2.95;1.05;;;;;;;6.46;67.79;95330.50;6188527;23;20016;-81
2022/02/24 11:13:20;;;;;;;1.63;1.10;;;;;;;6.56;68.96;95326.16;6181927;23;20024;-79
2022/02/24 11:15:45;;;;;;;1.13;0.80;;;;;;;6.88;66.61;95349.81;6206690;23;20008;-78
2022/02/24 11:18:13;;;;;;;1.83;1.02;;;;;;;6.95;68.96;95342.34;6204481;23;20067;-80
2022/02/24 11:20:39;;;;;;;0.93;0.70;;;;;;;7.11;68.40;95336.63;6187288;23;20087;-80
2022/02/24 11:23:05;;;;;;;2.05;0.85;;;;;;;6.94;70.04;95329.59;6186111;23;20005;-79
2022/02/24 11:28:07;;;;;;;1.30;0.85;;;;;;;7.33;65.24;95352.53;6215161;22;20017;-81
2022/02/24 11:30:32;;;;;;;2.25;1.15;;;;;;;7.31;66.15;95325.31;6179699;23;20020;-81
2022/02/24 11:41:03;;;;;;;1.73;1.10;;;;;;;7.03;64.93;95339.09;6203548;22;20036;-81
2022/02/24 11:59:50;;;;;;;2.45;1.08;;;;;;;6.53;65.74;95292.97;6195747;22;20031;-79
2022/02/24 12:02:17;;;;;;;2.30;1.08;;;;;;;6.42;66.04;95292.34;6176297;23;20085;-84
2022/02/24 12:04:47;;;;;;;1.48;1.20;;;;;;;6.38;67.72;95285.84;6211966;22;20016;-84
2022/02/24 12:07:24;;;;;;;1.40;1.08;;;;;;;6.41;68.15;95276.09;6162682;23;19997;-83
2022/02/24 12:10:22;;;;;;;3.28;1.52;;;;;;;6.50;67.94;95342.13;6188274;23;20005;-81
2022/02/24 12:12:52;;;;;;;1.13;0.82;;;;;;;6.24;69.12;95303.28;6098385;23;20060;-83
2022/02/24 12:15:18;;;;;;;1.67;1.17;;;;;;;6.42;68.63;95300.06;6162440;23;20013;-80
2022/02/24 12:20:23;;;;;;;2.17;0.90;;;;;;;6.45;68.12;95292.88;6206578;22;20050;-79
2022/02/24 12:46:00;;;;;;;3.33;1.20;;;;;;;6.51;65.62;95312.09;6244819;23;20100;-83
2022/02/24 12:48:26;;;;;;;1.50;1.08;;;;;;;6.49;66.20;95283.09;6182626;23;20009;-82
2022/02/24 12:50:53;;;;;;;2.45;1.10;;;;;;;6.32;66.59;95277.69;6189093;23;20017;-82
2022/02/24 12:53:22;;;;;;;1.98;0.98;;;;;;;6.31;66.92;95272.72;6242171;23;20020;-80
2022/02/24 12:55:49;;;;;;;1.45;1.10;;;;;;;6.28;68.63;95278.94;6217030;23;20015;-81
2022/02/24 12:58:16;;;;;;;1.67;1.20;;;;;;;6.12;67.26;95262.44;6216005;23;20020;-82
2022/02/24 13:00:44;;;;;;;1.95;1.20;;;;;;;6.24;66.63;95287.06;6184546;23;20013;-80
2022/02/24 13:03:10;;;;;;;3.08;1.58;;;;;;;6.54;67.76;95315.19;6229002;23;20000;-80
2022/02/24 13:05:50;;;;;;;2.90;1.63;;;;;;;6.60;67.27;95306.94;6195890;23;19992;-79
2022/02/24 13:11:09;;;;;;;1.35;0.95;;;;;;;6.48;66.05;95289.22;6196545;23;20354;-80
2022/02/24 13:13:36;;;;;;;2.22;1.73;;;;;;;6.59;67.64;95294.19;6205156;23;20008;-79
2022/02/24 13:16:04;;;;;;;3.97;1.77;;;;;;;6.58;66.62;95295.94;6187288;23;20008;-80
2022/02/24 13:18:37;;;;;;;2.53;1.40;;;;;;;6.64;64.00;95285.13;6214380;23;19985;-82
2022/02/24 13:21:03;;;;;;;1.90;1.63;;;;;;;6.69;68.03;95284.69;6189419;23;20008;-81
2022/02/24 13:23:29;;;;;;;2.08;1.52;;;;;;;6.79;66.14;95286.31;6188596;23;20017;-81
2022/02/24 13:25:59;;;;;;;3.58;1.45;;;;;;;6.84;65.01;95288.44;6215334;23;20019;-83
2022/02/24 13:28:29;;;;;;;2.13;1.60;;;;;;;7.20;65.24;95286.84;6214822;23;20557;-82
2022/02/24 13:33:35;;;;;;;1.75;1.20;;;;;;;6.68;62.12;95236.75;6228865;22;19915;-83
2022/02/24 13:36:02;;;;;;;2.38;1.20;;;;;;;6.62;64.81;95230.41;6174873;23;20053;-80
2022/02/24 13:38:37;;;;;;;1.70;1.20;;;;;;;6.96;62.39;95281.38;6208822;23;20057;-81
2022/02/24 13:41:04;;;;;;;1.40;1.00;;;;;;;6.70;62.01;95251.13;6238029;23;19991;-79
2022/02/24 13:43:30;;;;;;;1.77;1.13;;;;;;;6.46;62.70;95222.44;6184328;23;20000;-80
2022/02/24 13:45:56;;;;;;;1.50;1.30;;;;;;;6.41;61.88;95216.13;6217682;23;20008;-82
2022/02/24 13:51:02;;;;;;;3.35;1.10;;;;;;;6.78;63.20;95227.22;6214596;22;20007;-85
2022/02/24 14:01:17;;;;;;;1.75;1.10;;;;;;;6.80;64.11;95259.63;6217807;22;20218;-82
2022/02/24 14:23:26;;;;;;;2.15;1.02;;;;;;;6.42;66.25;95210.84;6225229;23;20085;-85
2022/02/24 15:21:52;;;;;;;2.30;1.70;;;;;;;5.30;62.83;95170.28;6206046;23;20083;-79
2022/02/24 15:24:17;;;;;;;2.55;2.28;;;;;;;5.17;64.31;95176.63;6234858;23;20000;-81
2022/02/24 15:26:43;;;;;;;1.85;1.00;;;;;;;5.43;64.01;95225.69;6215774;23;19997;-81
2022/02/24 15:31:44;;;;;;;1.50;1.27;;;;;;;5.23;68.17;95215.38;6213239;22;20023;-81
2022/02/24 15:34:10;;;;;;;1.75;0.70;;;;;;;5.08;68.21;95192.78;6215604;23;19985;-81
2022/02/24 15:36:36;;;;;;;1.52;0.70;;;;;;;5.37;67.86;95229.59;6215583;23;20000;-81
2022/02/24 15:39:02;;;;;;;1.42;0.80;;;;;;;5.40;66.75;95221.63;6216100;23;20008;-82
2022/02/24 15:41:30;;;;;;;0.82;0.73;;;;;;;5.04;65.79;95171.72;6217745;23;20048;-80
2022/02/24 15:43:56;;;;;;;1.20;1.10;;;;;;;4.90;65.17;95172.09;6217903;23;19984;-82
2022/02/24 15:46:23;;;;;;;5.88;1.40;;;;;;;5.08;64.59;95200.50;6193247;23;20009;-81
2022/02/24 15:48:49;;;;;;;2.50;2.00;;;;;;;5.16;66.62;95222.00;6216168;23;20012;-81
2022/02/24 15:51:15;;;;;;;4.35;3.90;;;;;;;4.93;66.34;95194.94;6244202;22;20027;-79
2022/02/24 16:01:26;;;;;;;3.97;3.58;;;;;;;4.88;65.87;95234.75;6215732;23;20027;-81
2022/02/24 16:03:52;;;;;;;2.45;1.30;;;;;;;4.38;67.66;95178.22;6193883;23;19996;-81
2022/02/24 16:06:18;;;;;;;3.05;2.13;;;;;;;4.36;68.65;95182.69;6243637;23;19997;-82
2022/02/24 16:08:44;;;;;;;4.43;1.30;;;;;;;4.39;69.33;95208.06;6192444;23;20021;-81
2022/02/24 16:11:10;;;;;;;5.00;2.08;;;;;;;4.46;70.96;95229.69;6192167;23;19981;-82
2022/02/24 16:13:36;;;;;;;6.80;2.45;;;;;;;4.11;73.08;95189.00;6243377;23;20017;-82
2022/02/24 16:28:57;;;;;;;3.97;1.02;;;;;;;3.24;89.25;95189.28;6214254;22;20047;-82
2022/02/24 16:31:28;;;;;;;3.30;1.50;;;;;;;3.12;90.74;95196.16;6186669;23;20004;-82
2022/02/24 16:33:57;;;;;;;2.03;0.85;;;;;;;2.79;92.22;95192.88;6186755;23;20060;-81
2022/02/24 16:36:24;;;;;;;3.67;1.40;;;;;;;2.80;92.66;95191.91;6186692;23;20005;-82
2022/02/24 16:38:55;;;;;;;1.40;1.25;;;;;;;2.85;93.19;95223.91;6186716;23;20233;-81
2022/02/24 16:41:25;;;;;;;3.15;2.13;;;;;;;2.69;93.72;95208.09;6187997;23;19996;-82
2022/02/24 16:43:52;;;;;;;4.18;3.42;;;;;;;2.46;94.46;95194.50;6163022;23;20005;-82
2022/02/24 16:46:21;;;;;;;1.25;1.15;;;;;;;2.37;94.44;95199.50;6158098;23;20009;-82
2022/02/24 16:48:48;;;;;;;1.73;1.23;;;;;;;2.59;94.85;95245.50;6157077;23;20024;-82
2022/02/24 16:51:18;;;;;;;2.50;1.70;;;;;;;2.32;96.40;95222.81;6157010;23;20093;-82
2022/02/24 16:53:44;;;;;;;2.58;2.10;;;;;;;2.13;96.74;95222.56;6158274;23;20009;-84
2022/02/24 16:56:10;;;;;;;7.25;3.20;;;;;;;2.27;97.30;95250.47;6156596;23;20006;-82
2022/02/24 16:58:38;;;;;;;8.30;4.10;;;;;;;2.06;96.22;95206.06;6157216;23;20044;-82
2022/02/24 17:01:07;;;;;;;4.00;1.90;;;;;;;1.75;96.49;95212.59;6157703;23;20036;-83
2022/02/24 17:03:38;;;;;;;2.15;1.70;;;;;;;1.71;96.21;95223.13;6133581;23;20056;-82
2022/02/24 17:06:03;;;;;;;4.07;2.15;;;;;;;1.63;95.64;95207.56;6158287;23;19990;-83
2022/02/24 17:08:29;;;;;;;6.28;5.68;;;;;;;1.62;95.53;95211.84;6173545;23;20021;-82
2022/02/24 17:11:03;;;;;;;3.75;3.30;;;;;;;1.46;96.01;95213.88;6186792;23;19993;-84
2022/02/24 17:13:32;;;;;;;2.78;2.47;;;;;;;1.33;96.98;95215.66;6163521;23;20010;-83
2022/02/24 17:15:57;;;;;;;4.07;2.60;;;;;;;1.67;97.08;95254.91;6187914;23;19989;-83
2022/02/24 17:18:23;;;;;;;3.63;1.83;;;;;;;1.34;96.98;95214.75;6187159;23;20004;-82
2022/02/24 17:25:59;;;;;;;5.47;3.33;;;;;;;0.95;100.00;95210.69;6213084;22;20013;-82
2022/02/24 17:28:31;;;;;;;5.43;3.63;;;;;;;1.03;99.07;95204.13;6214697;22;19997;-83
